sensor_id;sensor_type;location;lat;lon;timestamp;P1;durP1;ratioP1;P2;durP2;ratioP2
59312;SDS011;45084;51.486;7.366;2023-09-07T00:00:47;7.82;;;5.88;;
59312;SDS011;45084;51.486;7.366;2023-09-07T00:03:13;7.63;;;5.78;;
59312;SDS011;45084;51.486;7.366;2023-09-07T00:05:40;12.05;;;6.45;;
59312;SDS011;45084;51.486;7.366;2023-09-07T00:08:06;6.82;;;6.13;;
59312;SDS011;45084;51.486;7.366;2023-09-07T00:10:34;7.47;;;6.22;;
59312;SDS011;45084;51.486;7.366;2023-09-07T00:13:01;6.50;;;5.85;;
59312;SDS011;45084;51.486;7.366;2023-09-07T00:15:27;8.38;;;6.53;;
59312;SDS011;45084;51.486;7.366;2023-09-07T00:17:54;8.63;;;6.30;;
59312;SDS011;45084;51.486;7.366;2023-09-07T00:20:21;7.15;;;6.22;;
59312;SDS011;45084;51.486;7.366;2023-09-07T00:22:47;7.55;;;6.40;;
59312;SDS011;45084;51.486;7.366;2023-09-07T00:25:13;10.43;;;7.13;;
59312;SDS011;45084;51.486;7.366;2023-09-07T00:27:39;10.68;;;6.60;;
59312;SDS011;45084;51.486;7.366;2023-09-07T00:30:05;9.23;;;6.93;;
59312;SDS011;45084;51.486;7.366;2023-09-07T00:32:35;8.10;;;6.07;;
59312;SDS011;45084;51.486;7.366;2023-09-07T00:35:01;10.15;;;7.38;;
59312;SDS011;45084;51.486;7.366;2023-09-07T00:37:27;8.77;;;7.03;;
59312;SDS011;45084;51.486;7.366;2023-09-07T00:39:53;8.30;;;6.90;;
59312;SDS011;45084;51.486;7.366;2023-09-07T00:42:20;12.57;;;7.25;;
59312;SDS011;45084;51.486;7.366;2023-09-07T00:44:46;12.70;;;6.75;;
59312;SDS011;45084;51.486;7.366;2023-09-07T00:47:13;10.52;;;6.63;;
59312;SDS011;45084;51.486;7.366;2023-09-07T00:49:39;11.80;;;6.60;;
59312;SDS011;45084;51.486;7.366;2023-09-07T00:52:05;8.25;;;6.70;;
59312;SDS011;45084;51.486;7.366;2023-09-07T00:54:33;9.00;;;6.88;;
59312;SDS011;45084;51.486;7.366;2023-09-07T00:56:59;8.38;;;6.70;;
59312;SDS011;45084;51.486;7.366;2023-09-07T00:59:28;7.75;;;6.60;;
59312;SDS011;45084;51.486;7.366;2023-09-07T01:01:54;7.65;;;6.18;;
59312;SDS011;45084;51.486;7.366;2023-09-07T01:04:20;7.82;;;6.18;;
59312;SDS011;45084;51.486;7.366;2023-09-07T01:06:47;7.10;;;5.47;;
59312;SDS011;45084;51.486;7.366;2023-09-07T01:09:23;8.52;;;6.47;;
59312;SDS011;45084;51.486;7.366;2023-09-07T01:11:49;5.97;;;5.38;;
59312;SDS011;45084;51.486;7.366;2023-09-07T01:14:15;9.38;;;6.03;;
59312;SDS011;45084;51.486;7.366;2023-09-07T01:16:41;11.05;;;5.40;;
59312;SDS011;45084;51.486;7.366;2023-09-07T01:19:06;7.03;;;5.55;;
59312;SDS011;45084;51.486;7.366;2023-09-07T01:21:34;8.20;;;5.50;;
59312;SDS011;45084;51.486;7.366;2023-09-07T01:24:04;11.18;;;5.90;;
59312;SDS011;45084;51.486;7.366;2023-09-07T01:26:33;6.97;;;5.70;;
59312;SDS011;45084;51.486;7.366;2023-09-07T01:29:07;6.80;;;5.65;;
59312;SDS011;45084;51.486;7.366;2023-09-07T01:31:34;7.80;;;6.30;;
59312;SDS011;45084;51.486;7.366;2023-09-07T01:34:01;11.55;;;5.93;;
59312;SDS011;45084;51.486;7.366;2023-09-07T01:36:29;9.20;;;5.93;;
59312;SDS011;45084;51.486;7.366;2023-09-07T01:38:55;7.60;;;5.45;;
59312;SDS011;45084;51.486;7.366;2023-09-07T01:41:21;7.22;;;5.95;;
59312;SDS011;45084;51.486;7.366;2023-09-07T01:43:47;8.98;;;6.00;;
59312;SDS011;45084;51.486;7.366;2023-09-07T01:46:13;6.45;;;5.85;;
59312;SDS011;45084;51.486;7.366;2023-09-07T01:48:38;9.55;;;5.82;;
59312;SDS011;45084;51.486;7.366;2023-09-07T01:51:04;8.10;;;6.28;;
59312;SDS011;45084;51.486;7.366;2023-09-07T01:53:30;10.32;;;5.70;;
59312;SDS011;45084;51.486;7.366;2023-09-07T01:55:55;8.68;;;5.72;;
59312;SDS011;45084;51.486;7.366;2023-09-07T01:58:22;9.75;;;5.65;;
59312;SDS011;45084;51.486;7.366;2023-09-07T02:00:49;8.30;;;5.50;;
59312;SDS011;45084;51.486;7.366;2023-09-07T02:03:17;6.63;;;5.22;;
59312;SDS011;45084;51.486;7.366;2023-09-07T02:05:44;9.20;;;5.82;;
59312;SDS011;45084;51.486;7.366;2023-09-07T02:08:10;5.90;;;5.22;;
59312;SDS011;45084;51.486;7.366;2023-09-07T02:10:37;11.00;;;5.93;;
59312;SDS011;45084;51.486;7.366;2023-09-07T02:13:02;7.55;;;5.40;;
59312;SDS011;45084;51.486;7.366;2023-09-07T02:15:28;9.27;;;5.50;;
59312;SDS011;45084;51.486;7.366;2023-09-07T02:17:54;7.60;;;5.53;;
59312;SDS011;45084;51.486;7.366;2023-09-07T02:20:20;8.52;;;5.55;;
59312;SDS011;45084;51.486;7.366;2023-09-07T02:22:45;6.82;;;4.95;;
59312;SDS011;45084;51.486;7.366;2023-09-07T02:25:11;8.00;;;5.13;;
59312;SDS011;45084;51.486;7.366;2023-09-07T02:28:03;8.90;;;5.47;;
59312;SDS011;45084;51.486;7.366;2023-09-07T02:31:01;6.30;;;5.28;;
59312;SDS011;45084;51.486;7.366;2023-09-07T02:33:55;6.65;;;5.70;;
59312;SDS011;45084;51.486;7.366;2023-09-07T02:51:56;6.90;;;5.65;;
59312;SDS011;45084;51.486;7.366;2023-09-07T02:54:22;7.47;;;5.55;;
59312;SDS011;45084;51.486;7.366;2023-09-07T02:56:48;7.68;;;5.38;;
59312;SDS011;45084;51.486;7.366;2023-09-07T02:59:14;11.27;;;6.40;;
59312;SDS011;45084;51.486;7.366;2023-09-07T03:01:40;6.45;;;5.85;;
59312;SDS011;45084;51.486;7.366;2023-09-07T03:04:06;8.50;;;5.75;;
59312;SDS011;45084;51.486;7.366;2023-09-07T03:06:34;7.50;;;5.57;;
59312;SDS011;45084;51.486;7.366;2023-09-07T03:09:00;8.27;;;5.90;;
59312;SDS011;45084;51.486;7.366;2023-09-07T03:11:26;8.20;;;6.03;;
59312;SDS011;45084;51.486;7.366;2023-09-07T03:14:01;8.80;;;6.15;;
59312;SDS011;45084;51.486;7.366;2023-09-07T03:16:27;7.45;;;5.68;;
59312;SDS011;45084;51.486;7.366;2023-09-07T03:18:56;8.40;;;6.50;;
59312;SDS011;45084;51.486;7.366;2023-09-07T03:21:21;7.90;;;5.95;;
59312;SDS011;45084;51.486;7.366;2023-09-07T03:23:54;7.55;;;5.85;;
59312;SDS011;45084;51.486;7.366;2023-09-07T03:26:20;6.90;;;6.20;;
59312;SDS011;45084;51.486;7.366;2023-09-07T03:28:46;7.78;;;6.53;;
59312;SDS011;45084;51.486;7.366;2023-09-07T03:31:12;7.85;;;6.60;;
59312;SDS011;45084;51.486;7.366;2023-09-07T03:33:40;7.60;;;6.05;;
59312;SDS011;45084;51.486;7.366;2023-09-07T03:36:08;8.45;;;6.25;;
59312;SDS011;45084;51.486;7.366;2023-09-07T03:38:35;8.88;;;6.05;;
59312;SDS011;45084;51.486;7.366;2023-09-07T03:41:01;6.68;;;5.97;;
59312;SDS011;45084;51.486;7.366;2023-09-07T03:43:27;9.00;;;5.72;;
59312;SDS011;45084;51.486;7.366;2023-09-07T03:45:52;7.72;;;5.95;;
59312;SDS011;45084;51.486;7.366;2023-09-07T03:48:21;11.73;;;6.53;;
59312;SDS011;45084;51.486;7.366;2023-09-07T03:50:46;8.23;;;5.47;;
59312;SDS011;45084;51.486;7.366;2023-09-07T03:53:14;8.63;;;5.30;;
59312;SDS011;45084;51.486;7.366;2023-09-07T03:55:43;10.27;;;6.00;;
59312;SDS011;45084;51.486;7.366;2023-09-07T03:58:11;8.75;;;5.72;;
59312;SDS011;45084;51.486;7.366;2023-09-07T04:00:38;8.57;;;5.68;;
59312;SDS011;45084;51.486;7.366;2023-09-07T04:03:07;8.23;;;6.15;;
59312;SDS011;45084;51.486;7.366;2023-09-07T04:05:53;9.52;;;6.40;;
59312;SDS011;45084;51.486;7.366;2023-09-07T04:08:19;8.65;;;6.10;;
59312;SDS011;45084;51.486;7.366;2023-09-07T04:10:45;9.73;;;5.60;;
59312;SDS011;45084;51.486;7.366;2023-09-07T04:16:08;7.65;;;6.57;;
59312;SDS011;45084;51.486;7.366;2023-09-07T04:18:37;9.23;;;6.10;;
59312;SDS011;45084;51.486;7.366;2023-09-07T04:21:08;10.25;;;5.85;;
59312;SDS011;45084;51.486;7.366;2023-09-07T04:23:36;7.13;;;5.40;;
59312;SDS011;45084;51.486;7.366;2023-09-07T04:26:06;10.52;;;5.65;;
59312;SDS011;45084;51.486;7.366;2023-09-07T04:28:35;8.50;;;5.75;;
59312;SDS011;45084;51.486;7.366;2023-09-07T04:31:02;7.20;;;6.05;;
59312;SDS011;45084;51.486;7.366;2023-09-07T04:33:34;7.50;;;6.78;;
59312;SDS011;45084;51.486;7.366;2023-09-07T04:36:07;8.02;;;5.72;;
59312;SDS011;45084;51.486;7.366;2023-09-07T04:38:36;11.80;;;6.95;;
59312;SDS011;45084;51.486;7.366;2023-09-07T04:41:06;10.23;;;6.50;;
59312;SDS011;45084;51.486;7.366;2023-09-07T04:43:35;9.80;;;7.07;;
59312;SDS011;45084;51.486;7.366;2023-09-07T04:46:11;6.70;;;6.10;;
59312;SDS011;45084;51.486;7.366;2023-09-07T04:48:37;6.45;;;5.85;;
59312;SDS011;45084;51.486;7.366;2023-09-07T04:51:03;10.40;;;6.00;;
59312;SDS011;45084;51.486;7.366;2023-09-07T04:53:32;6.78;;;5.70;;
59312;SDS011;45084;51.486;7.366;2023-09-07T04:56:02;8.07;;;5.82;;
59312;SDS011;45084;51.486;7.366;2023-09-07T04:58:29;7.32;;;6.32;;
59312;SDS011;45084;51.486;7.366;2023-09-07T05:01:00;8.63;;;5.90;;
59312;SDS011;45084;51.486;7.366;2023-09-07T05:03:34;6.10;;;5.20;;
59312;SDS011;45084;51.486;7.366;2023-09-07T05:06:00;10.10;;;6.18;;
59312;SDS011;45084;51.486;7.366;2023-09-07T05:08:28;10.73;;;6.72;;
59312;SDS011;45084;51.486;7.366;2023-09-07T05:11:01;6.80;;;5.63;;
59312;SDS011;45084;51.486;7.366;2023-09-07T05:13:30;10.90;;;5.55;;
59312;SDS011;45084;51.486;7.366;2023-09-07T05:15:58;8.32;;;6.43;;
59312;SDS011;45084;51.486;7.366;2023-09-07T05:18:29;11.38;;;6.20;;
59312;SDS011;45084;51.486;7.366;2023-09-07T05:20:55;7.30;;;5.95;;
59312;SDS011;45084;51.486;7.366;2023-09-07T05:23:21;8.55;;;6.22;;
59312;SDS011;45084;51.486;7.366;2023-09-07T05:25:51;6.90;;;6.18;;
59312;SDS011;45084;51.486;7.366;2023-09-07T05:28:18;6.57;;;5.47;;
59312;SDS011;45084;51.486;7.366;2023-09-07T05:30:45;8.63;;;6.35;;
59312;SDS011;45084;51.486;7.366;2023-09-07T05:33:11;10.55;;;6.47;;
59312;SDS011;45084;51.486;7.366;2023-09-07T05:35:38;9.60;;;6.65;;
59312;SDS011;45084;51.486;7.366;2023-09-07T05:38:05;9.68;;;6.20;;
59312;SDS011;45084;51.486;7.366;2023-09-07T05:40:34;7.22;;;5.97;;
59312;SDS011;45084;51.486;7.366;2023-09-07T05:43:01;8.00;;;5.55;;
59312;SDS011;45084;51.486;7.366;2023-09-07T05:45:28;8.68;;;6.60;;
59312;SDS011;45084;51.486;7.366;2023-09-07T05:47:55;7.63;;;5.57;;
59312;SDS011;45084;51.486;7.366;2023-09-07T05:50:21;6.88;;;6.15;;
59312;SDS011;45084;51.486;7.366;2023-09-07T05:52:47;8.63;;;6.35;;
59312;SDS011;45084;51.486;7.366;2023-09-07T05:55:12;9.55;;;6.55;;
59312;SDS011;45084;51.486;7.366;2023-09-07T05:57:38;8.13;;;6.75;;
59312;SDS011;45084;51.486;7.366;2023-09-07T06:00:04;7.78;;;6.57;;
59312;SDS011;45084;51.486;7.366;2023-09-07T06:02:30;12.52;;;6.15;;
59312;SDS011;45084;51.486;7.366;2023-09-07T06:04:55;10.80;;;6.38;;
59312;SDS011;45084;51.486;7.366;2023-09-07T06:07:21;9.80;;;6.57;;
59312;SDS011;45084;51.486;7.366;2023-09-07T06:09:47;7.15;;;6.30;;
59312;SDS011;45084;51.486;7.366;2023-09-07T06:12:12;7.65;;;6.65;;
59312;SDS011;45084;51.486;7.366;2023-09-07T06:14:38;7.13;;;6.18;;
59312;SDS011;45084;51.486;7.366;2023-09-07T06:17:04;7.60;;;6.30;;
59312;SDS011;45084;51.486;7.366;2023-09-07T06:19:30;8.35;;;6.22;;
59312;SDS011;45084;51.486;7.366;2023-09-07T06:21:56;10.02;;;6.63;;
59312;SDS011;45084;51.486;7.366;2023-09-07T06:24:22;6.82;;;6.22;;
59312;SDS011;45084;51.486;7.366;2023-09-07T06:26:47;13.95;;;7.53;;
59312;SDS011;45084;51.486;7.366;2023-09-07T06:29:13;12.13;;;7.55;;
59312;SDS011;45084;51.486;7.366;2023-09-07T06:31:39;8.80;;;6.40;;
59312;SDS011;45084;51.486;7.366;2023-09-07T06:34:04;7.00;;;6.30;;
59312;SDS011;45084;51.486;7.366;2023-09-07T06:36:30;10.15;;;6.53;;
59312;SDS011;45084;51.486;7.366;2023-09-07T06:38:56;10.07;;;6.32;;
59312;SDS011;45084;51.486;7.366;2023-09-07T06:41:22;7.05;;;6.35;;
59312;SDS011;45084;51.486;7.366;2023-09-07T06:43:47;6.57;;;5.93;;
59312;SDS011;45084;51.486;7.366;2023-09-07T06:46:13;8.38;;;6.32;;
59312;SDS011;45084;51.486;7.366;2023-09-07T06:48:38;7.43;;;6.38;;
59312;SDS011;45084;51.486;7.366;2023-09-07T06:51:05;7.35;;;5.80;;
59312;SDS011;45084;51.486;7.366;2023-09-07T06:53:31;8.73;;;6.05;;
59312;SDS011;45084;51.486;7.366;2023-09-07T06:56:00;13.40;;;6.20;;
59312;SDS011;45084;51.486;7.366;2023-09-07T06:58:27;11.95;;;6.82;;
59312;SDS011;45084;51.486;7.366;2023-09-07T07:00:52;10.75;;;6.57;;
59312;SDS011;45084;51.486;7.366;2023-09-07T07:03:22;9.55;;;6.50;;
59312;SDS011;45084;51.486;7.366;2023-09-07T07:05:47;15.00;;;6.95;;
59312;SDS011;45084;51.486;7.366;2023-09-07T07:08:13;7.55;;;6.45;;
59312;SDS011;45084;51.486;7.366;2023-09-07T07:10:38;9.85;;;6.38;;
59312;SDS011;45084;51.486;7.366;2023-09-07T07:13:04;11.73;;;6.70;;
59312;SDS011;45084;51.486;7.366;2023-09-07T07:15:29;13.77;;;6.72;;
59312;SDS011;45084;51.486;7.366;2023-09-07T07:17:55;11.07;;;7.15;;
59312;SDS011;45084;51.486;7.366;2023-09-07T07:20:21;10.25;;;6.50;;
59312;SDS011;45084;51.486;7.366;2023-09-07T07:22:46;11.60;;;7.50;;
59312;SDS011;45084;51.486;7.366;2023-09-07T07:25:15;10.85;;;6.47;;
59312;SDS011;45084;51.486;7.366;2023-09-07T07:27:40;12.88;;;6.88;;
59312;SDS011;45084;51.486;7.366;2023-09-07T07:30:06;13.90;;;6.63;;
59312;SDS011;45084;51.486;7.366;2023-09-07T07:32:32;9.52;;;5.88;;
59312;SDS011;45084;51.486;7.366;2023-09-07T07:34:57;9.70;;;5.38;;
59312;SDS011;45084;51.486;7.366;2023-09-07T07:37:23;10.90;;;6.20;;
59312;SDS011;45084;51.486;7.366;2023-09-07T07:39:49;8.23;;;5.25;;
59312;SDS011;45084;51.486;7.366;2023-09-07T07:42:14;5.70;;;5.10;;
59312;SDS011;45084;51.486;7.366;2023-09-07T07:44:40;7.20;;;5.38;;
59312;SDS011;45084;51.486;7.366;2023-09-07T07:47:05;9.55;;;4.97;;
59312;SDS011;45084;51.486;7.366;2023-09-07T07:49:31;8.10;;;5.20;;
59312;SDS011;45084;51.486;7.366;2023-09-07T07:51:57;8.77;;;4.78;;
59312;SDS011;45084;51.486;7.366;2023-09-07T07:54:23;9.45;;;5.20;;
59312;SDS011;45084;51.486;7.366;2023-09-07T07:56:50;9.85;;;4.88;;
59312;SDS011;45084;51.486;7.366;2023-09-07T07:59:15;8.48;;;4.65;;
59312;SDS011;45084;51.486;7.366;2023-09-07T08:01:41;5.13;;;4.57;;
59312;SDS011;45084;51.486;7.366;2023-09-07T08:04:07;6.88;;;4.70;;
59312;SDS011;45084;51.486;7.366;2023-09-07T08:06:33;7.00;;;5.07;;
59312;SDS011;45084;51.486;7.366;2023-09-07T08:08:59;9.25;;;4.93;;
59312;SDS011;45084;51.486;7.366;2023-09-07T08:11:25;5.95;;;4.38;;
59312;SDS011;45084;51.486;7.366;2023-09-07T08:13:52;7.90;;;4.38;;
59312;SDS011;45084;51.486;7.366;2023-09-07T08:16:17;7.88;;;4.68;;
59312;SDS011;45084;51.486;7.366;2023-09-07T08:18:43;6.82;;;4.43;;
59312;SDS011;45084;51.486;7.366;2023-09-07T08:21:09;5.88;;;4.43;;
59312;SDS011;45084;51.486;7.366;2023-09-07T08:23:34;6.57;;;4.35;;
59312;SDS011;45084;51.486;7.366;2023-09-07T08:26:01;13.02;;;4.40;;
59312;SDS011;45084;51.486;7.366;2023-09-07T08:28:28;8.25;;;4.53;;
59312;SDS011;45084;51.486;7.366;2023-09-07T08:30:54;6.15;;;3.95;;
59312;SDS011;45084;51.486;7.366;2023-09-07T08:33:22;4.85;;;4.22;;
59312;SDS011;45084;51.486;7.366;2023-09-07T08:35:51;5.53;;;3.95;;
59312;SDS011;45084;51.486;7.366;2023-09-07T08:38:19;5.00;;;4.10;;
59312;SDS011;45084;51.486;7.366;2023-09-07T08:40:49;5.35;;;4.10;;
59312;SDS011;45084;51.486;7.366;2023-09-07T08:43:16;5.72;;;3.83;;
59312;SDS011;45084;51.486;7.366;2023-09-07T08:45:46;6.05;;;4.00;;
59312;SDS011;45084;51.486;7.366;2023-09-07T08:48:15;4.95;;;3.53;;
59312;SDS011;45084;51.486;7.366;2023-09-07T08:50:42;5.28;;;3.65;;
59312;SDS011;45084;51.486;7.366;2023-09-07T08:53:16;6.78;;;3.63;;
59312;SDS011;45084;51.486;7.366;2023-09-07T08:55:43;4.97;;;3.72;;
59312;SDS011;45084;51.486;7.366;2023-09-07T08:58:09;6.93;;;4.03;;
59312;SDS011;45084;51.486;7.366;2023-09-07T09:00:35;5.15;;;3.70;;
59312;SDS011;45084;51.486;7.366;2023-09-07T09:03:02;4.70;;;3.70;;
59312;SDS011;45084;51.486;7.366;2023-09-07T09:05:29;5.07;;;3.60;;
59312;SDS011;45084;51.486;7.366;2023-09-07T09:08:05;5.28;;;3.78;;
59312;SDS011;45084;51.486;7.366;2023-09-07T09:10:31;5.47;;;3.13;;
59312;SDS011;45084;51.486;7.366;2023-09-07T09:12:57;3.80;;;3.50;;
59312;SDS011;45084;51.486;7.366;2023-09-07T09:15:24;5.07;;;3.80;;
59312;SDS011;45084;51.486;7.366;2023-09-07T09:17:52;4.07;;;3.53;;
59312;SDS011;45084;51.486;7.366;2023-09-07T09:20:21;3.75;;;3.45;;
59312;SDS011;45084;51.486;7.366;2023-09-07T09:22:53;4.32;;;3.78;;
59312;SDS011;45084;51.486;7.366;2023-09-07T09:25:20;7.43;;;3.90;;
59312;SDS011;45084;51.486;7.366;2023-09-07T09:27:47;3.40;;;3.10;;
59312;SDS011;45084;51.486;7.366;2023-09-07T09:30:13;5.85;;;3.50;;
59312;SDS011;45084;51.486;7.366;2023-09-07T09:32:41;5.88;;;3.90;;
59312;SDS011;45084;51.486;7.366;2023-09-07T09:35:08;4.13;;;3.65;;
59312;SDS011;45084;51.486;7.366;2023-09-07T09:37:34;5.03;;;3.67;;
59312;SDS011;45084;51.486;7.366;2023-09-07T09:40:14;4.85;;;3.90;;
59312;SDS011;45084;51.486;7.366;2023-09-07T09:42:43;5.40;;;3.70;;
59312;SDS011;45084;51.486;7.366;2023-09-07T09:45:09;5.65;;;3.92;;
59312;SDS011;45084;51.486;7.366;2023-09-07T09:47:42;3.58;;;3.30;;
59312;SDS011;45084;51.486;7.366;2023-09-07T09:50:08;4.90;;;3.70;;
59312;SDS011;45084;51.486;7.366;2023-09-07T09:52:35;4.22;;;3.75;;
59312;SDS011;45084;51.486;7.366;2023-09-07T09:55:05;3.83;;;3.53;;
59312;SDS011;45084;51.486;7.366;2023-09-07T09:57:33;3.80;;;3.45;;
59312;SDS011;45084;51.486;7.366;2023-09-07T09:59:59;5.45;;;4.00;;
59312;SDS011;45084;51.486;7.366;2023-09-07T10:02:31;3.63;;;3.40;;
59312;SDS011;45084;51.486;7.366;2023-09-07T10:05:01;5.45;;;3.83;;
59312;SDS011;45084;51.486;7.366;2023-09-07T10:07:41;4.97;;;3.78;;
59312;SDS011;45084;51.486;7.366;2023-09-07T10:10:12;3.97;;;3.50;;
59312;SDS011;45084;51.486;7.366;2023-09-07T10:12:51;6.57;;;3.58;;
59312;SDS011;45084;51.486;7.366;2023-09-07T10:15:22;4.43;;;3.80;;
59312;SDS011;45084;51.486;7.366;2023-09-07T10:23:16;3.92;;;3.63;;
59312;SDS011;45084;51.486;7.366;2023-09-07T10:25:47;4.30;;;3.90;;
59312;SDS011;45084;51.486;7.366;2023-09-07T10:28:23;3.97;;;3.65;;
59312;SDS011;45084;51.486;7.366;2023-09-07T10:30:59;4.82;;;3.47;;
59312;SDS011;45084;51.486;7.366;2023-09-07T10:33:29;9.60;;;3.90;;
59312;SDS011;45084;51.486;7.366;2023-09-07T10:35:59;5.32;;;3.55;;
59312;SDS011;45084;51.486;7.366;2023-09-07T10:38:26;6.78;;;3.90;;
59312;SDS011;45084;51.486;7.366;2023-09-07T10:40:56;5.03;;;3.70;;
59312;SDS011;45084;51.486;7.366;2023-09-07T10:43:26;3.70;;;3.40;;
59312;SDS011;45084;51.486;7.366;2023-09-07T10:45:53;4.53;;;3.72;;
59312;SDS011;45084;51.486;7.366;2023-09-07T10:48:20;4.13;;;3.72;;
59312;SDS011;45084;51.486;7.366;2023-09-07T10:50:46;4.32;;;3.63;;
59312;SDS011;45084;51.486;7.366;2023-09-07T10:53:12;6.10;;;3.80;;
59312;SDS011;45084;51.486;7.366;2023-09-07T10:55:41;5.10;;;3.83;;
59312;SDS011;45084;51.486;7.366;2023-09-07T10:58:10;3.92;;;3.63;;
59312;SDS011;45084;51.486;7.366;2023-09-07T11:00:36;5.53;;;3.83;;
59312;SDS011;45084;51.486;7.366;2023-09-07T11:03:08;4.20;;;3.80;;
59312;SDS011;45084;51.486;7.366;2023-09-07T11:05:35;3.90;;;3.58;;
59312;SDS011;45084;51.486;7.366;2023-09-07T11:08:03;5.15;;;4.10;;
59312;SDS011;45084;51.486;7.366;2023-09-07T11:10:34;4.07;;;3.65;;
59312;SDS011;45084;51.486;7.366;2023-09-07T11:13:01;6.00;;;3.58;;
59312;SDS011;45084;51.486;7.366;2023-09-07T11:15:31;8.43;;;4.03;;
59312;SDS011;45084;51.486;7.366;2023-09-07T11:17:58;8.00;;;4.03;;
59312;SDS011;45084;51.486;7.366;2023-09-07T11:20:32;4.70;;;3.92;;
59312;SDS011;45084;51.486;7.366;2023-09-07T11:22:58;4.82;;;3.92;;
59312;SDS011;45084;51.486;7.366;2023-09-07T11:25:25;4.32;;;3.92;;
59312;SDS011;45084;51.486;7.366;2023-09-07T11:27:51;4.47;;;3.80;;
59312;SDS011;45084;51.486;7.366;2023-09-07T11:30:22;6.30;;;4.25;;
59312;SDS011;45084;51.486;7.366;2023-09-07T11:32:49;5.25;;;4.15;;
59312;SDS011;45084;51.486;7.366;2023-09-07T11:35:15;4.60;;;4.20;;
59312;SDS011;45084;51.486;7.366;2023-09-07T11:37:41;5.00;;;4.43;;
59312;SDS011;45084;51.486;7.366;2023-09-07T11:40:07;4.70;;;4.30;;
59312;SDS011;45084;51.486;7.366;2023-09-07T11:42:37;8.68;;;4.28;;
59312;SDS011;45084;51.486;7.366;2023-09-07T11:45:05;6.88;;;4.70;;
59312;SDS011;45084;51.486;7.366;2023-09-07T11:47:31;4.55;;;4.15;;
59312;SDS011;45084;51.486;7.366;2023-09-07T11:49:57;4.80;;;4.38;;
59312;SDS011;45084;51.486;7.366;2023-09-07T11:52:23;5.25;;;4.45;;
59312;SDS011;45084;51.486;7.366;2023-09-07T11:54:48;9.63;;;4.13;;
59312;SDS011;45084;51.486;7.366;2023-09-07T11:57:14;5.03;;;4.40;;
59312;SDS011;45084;51.486;7.366;2023-09-07T11:59:41;4.70;;;4.10;;
59312;SDS011;45084;51.486;7.366;2023-09-07T12:02:06;6.15;;;4.43;;
59312;SDS011;45084;51.486;7.366;2023-09-07T12:04:32;4.68;;;4.28;;
59312;SDS011;45084;51.486;7.366;2023-09-07T12:06:58;4.95;;;4.40;;
59312;SDS011;45084;51.486;7.366;2023-09-07T12:09:24;5.15;;;4.25;;
59312;SDS011;45084;51.486;7.366;2023-09-07T12:11:49;7.40;;;4.65;;
59312;SDS011;45084;51.486;7.366;2023-09-07T12:14:15;4.40;;;3.88;;
59312;SDS011;45084;51.486;7.366;2023-09-07T12:16:41;5.88;;;4.40;;
59312;SDS011;45084;51.486;7.366;2023-09-07T12:19:06;6.57;;;4.45;;
59312;SDS011;45084;51.486;7.366;2023-09-07T12:21:32;4.78;;;4.13;;
59312;SDS011;45084;51.486;7.366;2023-09-07T12:23:58;6.55;;;4.22;;
59312;SDS011;45084;51.486;7.366;2023-09-07T12:26:24;5.55;;;4.28;;
59312;SDS011;45084;51.486;7.366;2023-09-07T12:28:49;8.73;;;4.25;;
59312;SDS011;45084;51.486;7.366;2023-09-07T12:31:15;5.82;;;4.18;;
59312;SDS011;45084;51.486;7.366;2023-09-07T12:33:41;5.15;;;4.40;;
59312;SDS011;45084;51.486;7.366;2023-09-07T12:36:07;5.75;;;4.28;;
59312;SDS011;45084;51.486;7.366;2023-09-07T12:38:36;5.38;;;4.05;;
59312;SDS011;45084;51.486;7.366;2023-09-07T12:41:02;4.40;;;4.00;;
59312;SDS011;45084;51.486;7.366;2023-09-07T12:43:28;4.72;;;4.00;;
59312;SDS011;45084;51.486;7.366;2023-09-07T12:45:53;8.50;;;4.45;;
59312;SDS011;45084;51.486;7.366;2023-09-07T12:48:19;4.13;;;3.83;;
59312;SDS011;45084;51.486;7.366;2023-09-07T12:50:45;6.35;;;4.05;;
59312;SDS011;45084;51.486;7.366;2023-09-07T12:53:11;4.25;;;3.80;;
59312;SDS011;45084;51.486;7.366;2023-09-07T12:55:37;4.75;;;4.35;;
59312;SDS011;45084;51.486;7.366;2023-09-07T12:58:02;5.68;;;5.07;;
59312;SDS011;45084;51.486;7.366;2023-09-07T13:00:28;5.47;;;4.47;;
59312;SDS011;45084;51.486;7.366;2023-09-07T13:02:54;6.10;;;4.43;;
59312;SDS011;45084;51.486;7.366;2023-09-07T13:05:21;6.05;;;4.30;;
59312;SDS011;45084;51.486;7.366;2023-09-07T13:07:49;4.25;;;3.72;;
59312;SDS011;45084;51.486;7.366;2023-09-07T13:10:15;4.75;;;4.05;;
59312;SDS011;45084;51.486;7.366;2023-09-07T13:12:41;6.53;;;4.50;;
59312;SDS011;45084;51.486;7.366;2023-09-07T13:15:07;7.13;;;4.63;;
59312;SDS011;45084;51.486;7.366;2023-09-07T13:17:33;6.20;;;4.57;;
59312;SDS011;45084;51.486;7.366;2023-09-07T13:19:58;4.85;;;4.25;;
59312;SDS011;45084;51.486;7.366;2023-09-07T13:22:24;4.57;;;4.13;;
59312;SDS011;45084;51.486;7.366;2023-09-07T13:24:50;5.63;;;4.30;;
59312;SDS011;45084;51.486;7.366;2023-09-07T13:27:16;4.47;;;3.97;;
59312;SDS011;45084;51.486;7.366;2023-09-07T13:29:41;4.43;;;4.10;;
59312;SDS011;45084;51.486;7.366;2023-09-07T13:32:07;5.53;;;4.03;;
59312;SDS011;45084;51.486;7.366;2023-09-07T13:34:33;5.03;;;4.15;;
59312;SDS011;45084;51.486;7.366;2023-09-07T13:36:59;6.60;;;4.30;;
59312;SDS011;45084;51.486;7.366;2023-09-07T13:39:24;5.63;;;3.95;;
59312;SDS011;45084;51.486;7.366;2023-09-07T13:41:50;5.57;;;4.45;;
59312;SDS011;45084;51.486;7.366;2023-09-07T13:44:16;4.63;;;3.85;;
59312;SDS011;45084;51.486;7.366;2023-09-07T13:46:42;6.55;;;4.35;;
59312;SDS011;45084;51.486;7.366;2023-09-07T13:49:09;6.20;;;4.20;;
59312;SDS011;45084;51.486;7.366;2023-09-07T13:51:35;5.93;;;3.88;;
59312;SDS011;45084;51.486;7.366;2023-09-07T13:54:06;5.90;;;4.10;;
59312;SDS011;45084;51.486;7.366;2023-09-07T13:56:33;4.18;;;3.83;;
59312;SDS011;45084;51.486;7.366;2023-09-07T13:58:59;7.03;;;4.00;;
59312;SDS011;45084;51.486;7.366;2023-09-07T14:01:25;4.32;;;4.00;;
59312;SDS011;45084;51.486;7.366;2023-09-07T14:03:51;4.38;;;3.97;;
59312;SDS011;45084;51.486;7.366;2023-09-07T14:06:17;5.60;;;4.00;;
59312;SDS011;45084;51.486;7.366;2023-09-07T14:08:44;6.90;;;3.67;;
59312;SDS011;45084;51.486;7.366;2023-09-07T14:11:11;6.28;;;3.92;;
59312;SDS011;45084;51.486;7.366;2023-09-07T14:13:37;6.07;;;3.53;;
59312;SDS011;45084;51.486;7.366;2023-09-07T14:16:03;3.97;;;3.60;;
59312;SDS011;45084;51.486;7.366;2023-09-07T14:18:29;4.20;;;3.83;;
59312;SDS011;45084;51.486;7.366;2023-09-07T14:20:55;4.00;;;3.50;;
59312;SDS011;45084;51.486;7.366;2023-09-07T14:23:24;3.88;;;3.47;;
59312;SDS011;45084;51.486;7.366;2023-09-07T14:25:53;4.57;;;3.72;;
59312;SDS011;45084;51.486;7.366;2023-09-07T14:28:19;6.18;;;4.03;;
59312;SDS011;45084;51.486;7.366;2023-09-07T14:30:45;3.97;;;3.65;;
59312;SDS011;45084;51.486;7.366;2023-09-07T14:33:11;5.68;;;3.65;;
59312;SDS011;45084;51.486;7.366;2023-09-07T14:35:37;4.55;;;3.75;;
59312;SDS011;45084;51.486;7.366;2023-09-07T14:38:03;9.55;;;3.78;;
59312;SDS011;45084;51.486;7.366;2023-09-07T14:40:29;3.92;;;3.60;;
59312;SDS011;45084;51.486;7.366;2023-09-07T14:42:54;3.58;;;3.28;;
59312;SDS011;45084;51.486;7.366;2023-09-07T14:45:22;4.90;;;3.38;;
59312;SDS011;45084;51.486;7.366;2023-09-07T14:47:52;4.75;;;3.75;;
59312;SDS011;45084;51.486;7.366;2023-09-07T14:50:17;7.68;;;3.88;;
59312;SDS011;45084;51.486;7.366;2023-09-07T14:52:44;5.93;;;3.70;;
59312;SDS011;45084;51.486;7.366;2023-09-07T14:55:12;5.07;;;3.80;;
59312;SDS011;45084;51.486;7.366;2023-09-07T14:57:39;5.75;;;3.70;;
59312;SDS011;45084;51.486;7.366;2023-09-07T15:00:05;4.25;;;3.88;;
59312;SDS011;45084;51.486;7.366;2023-09-07T15:02:32;5.13;;;3.50;;
59312;SDS011;45084;51.486;7.366;2023-09-07T15:04:58;4.00;;;3.60;;
59312;SDS011;45084;51.486;7.366;2023-09-07T15:07:24;5.00;;;3.75;;
59312;SDS011;45084;51.486;7.366;2023-09-07T15:09:49;6.22;;;3.75;;